sensor_id;sensor_type;location;lat;lon;timestamp;P1;durP1;ratioP1;P2;durP2;ratioP2
11935;SDS011;6027;48.576;9.180;2024-03-22T00:01:48;9.15;;;7.53;;
11935;SDS011;6027;48.576;9.180;2024-03-22T00:04:15;7.65;;;6.95;;
11935;SDS011;6027;48.576;9.180;2024-03-22T00:06:41;8.57;;;7.68;;
11935;SDS011;6027;48.576;9.180;2024-03-22T00:09:08;10.52;;;7.40;;
11935;SDS011;6027;48.576;9.180;2024-03-22T00:11:33;8.35;;;7.53;;
11935;SDS011;6027;48.576;9.180;2024-03-22T00:13:59;8.70;;;7.15;;
11935;SDS011;6027;48.576;9.180;2024-03-22T00:16:24;9.75;;;7.45;;
11935;SDS011;6027;48.576;9.180;2024-03-22T00:18:50;8.35;;;7.20;;
11935;SDS011;6027;48.576;9.180;2024-03-22T00:21:15;7.72;;;7.10;;
11935;SDS011;6027;48.576;9.180;2024-03-22T00:23:41;8.52;;;7.63;;
11935;SDS011;6027;48.576;9.180;2024-03-22T00:26:06;10.40;;;7.47;;
11935;SDS011;6027;48.576;9.180;2024-03-22T00:28:32;8.40;;;6.60;;
11935;SDS011;6027;48.576;9.180;2024-03-22T00:30:58;8.15;;;7.30;;
11935;SDS011;6027;48.576;9.180;2024-03-22T00:33:23;8.85;;;7.28;;
11935;SDS011;6027;48.576;9.180;2024-03-22T00:35:49;7.88;;;7.07;;
11935;SDS011;6027;48.576;9.180;2024-03-22T00:38:14;8.68;;;7.68;;
11935;SDS011;6027;48.576;9.180;2024-03-22T00:40:39;8.65;;;7.70;;
11935;SDS011;6027;48.576;9.180;2024-03-22T00:43:06;8.77;;;7.88;;
11935;SDS011;6027;48.576;9.180;2024-03-22T00:45:31;8.25;;;7.50;;
11935;SDS011;6027;48.576;9.180;2024-03-22T00:47:57;8.82;;;7.93;;
11935;SDS011;6027;48.576;9.180;2024-03-22T00:50:22;8.18;;;7.45;;
11935;SDS011;6027;48.576;9.180;2024-03-22T00:52:49;10.20;;;9.20;;
11935;SDS011;6027;48.576;9.180;2024-03-22T00:55:19;12.73;;;10.13;;
11935;SDS011;6027;48.576;9.180;2024-03-22T00:57:45;12.35;;;9.73;;
11935;SDS011;6027;48.576;9.180;2024-03-22T01:00:10;10.27;;;9.18;;
11935;SDS011;6027;48.576;9.180;2024-03-22T01:02:36;10.23;;;9.25;;
11935;SDS011;6027;48.576;9.180;2024-03-22T01:05:02;11.50;;;8.85;;
11935;SDS011;6027;48.576;9.180;2024-03-22T01:07:27;10.30;;;9.20;;
11935;SDS011;6027;48.576;9.180;2024-03-22T01:09:53;10.32;;;9.35;;
11935;SDS011;6027;48.576;9.180;2024-03-22T01:12:18;9.55;;;8.70;;
11935;SDS011;6027;48.576;9.180;2024-03-22T01:14:43;9.88;;;8.88;;
11935;SDS011;6027;48.576;9.180;2024-03-22T01:17:09;11.07;;;9.50;;
11935;SDS011;6027;48.576;9.180;2024-03-22T01:19:35;10.60;;;9.63;;
11935;SDS011;6027;48.576;9.180;2024-03-22T01:22:00;10.80;;;9.70;;
11935;SDS011;6027;48.576;9.180;2024-03-22T01:24:25;11.27;;;9.48;;
11935;SDS011;6027;48.576;9.180;2024-03-22T01:26:51;10.57;;;9.52;;
11935;SDS011;6027;48.576;9.180;2024-03-22T01:29:16;10.73;;;9.68;;
11935;SDS011;6027;48.576;9.180;2024-03-22T01:31:42;10.73;;;9.57;;
11935;SDS011;6027;48.576;9.180;2024-03-22T01:34:07;11.93;;;9.98;;
11935;SDS011;6027;48.576;9.180;2024-03-22T01:36:33;10.98;;;9.80;;
11935;SDS011;6027;48.576;9.180;2024-03-22T01:38:58;10.05;;;9.13;;
11935;SDS011;6027;48.576;9.180;2024-03-22T01:41:23;11.63;;;9.40;;
11935;SDS011;6027;48.576;9.180;2024-03-22T01:43:49;10.60;;;9.60;;
11935;SDS011;6027;48.576;9.180;2024-03-22T01:46:14;10.55;;;9.57;;
11935;SDS011;6027;48.576;9.180;2024-03-22T01:48:40;10.23;;;9.23;;
11935;SDS011;6027;48.576;9.180;2024-03-22T01:51:05;11.07;;;9.98;;
11935;SDS011;6027;48.576;9.180;2024-03-22T01:53:32;11.13;;;9.93;;
11935;SDS011;6027;48.576;9.180;2024-03-22T01:55:57;10.90;;;9.77;;
11935;SDS011;6027;48.576;9.180;2024-03-22T01:58:23;10.55;;;9.55;;
11935;SDS011;6027;48.576;9.180;2024-03-22T02:00:49;10.82;;;9.55;;
11935;SDS011;6027;48.576;9.180;2024-03-22T02:03:15;10.07;;;9.10;;
11935;SDS011;6027;48.576;9.180;2024-03-22T02:05:40;10.80;;;9.70;;
11935;SDS011;6027;48.576;9.180;2024-03-22T02:08:06;10.57;;;9.48;;
11935;SDS011;6027;48.576;9.180;2024-03-22T02:10:31;12.50;;;9.38;;
11935;SDS011;6027;48.576;9.180;2024-03-22T02:12:57;9.93;;;9.00;;
11935;SDS011;6027;48.576;9.180;2024-03-22T02:15:24;10.75;;;9.60;;
11935;SDS011;6027;48.576;9.180;2024-03-22T02:17:49;10.98;;;9.57;;
11935;SDS011;6027;48.576;9.180;2024-03-22T02:20:15;10.40;;;9.30;;
11935;SDS011;6027;48.576;9.180;2024-03-22T02:22:40;10.30;;;9.30;;
11935;SDS011;6027;48.576;9.180;2024-03-22T02:25:06;10.65;;;9.68;;
11935;SDS011;6027;48.576;9.180;2024-03-22T02:27:33;13.23;;;9.15;;
11935;SDS011;6027;48.576;9.180;2024-03-22T02:29:58;11.07;;;9.32;;
11935;SDS011;6027;48.576;9.180;2024-03-22T02:32:24;9.85;;;8.95;;
11935;SDS011;6027;48.576;9.180;2024-03-22T02:34:49;10.07;;;9.18;;
11935;SDS011;6027;48.576;9.180;2024-03-22T02:37:15;10.93;;;9.85;;
11935;SDS011;6027;48.576;9.180;2024-03-22T02:39:40;10.93;;;9.82;;
11935;SDS011;6027;48.576;9.180;2024-03-22T02:42:05;10.25;;;9.25;;
11935;SDS011;6027;48.576;9.180;2024-03-22T02:44:31;11.50;;;10.30;;
11935;SDS011;6027;48.576;9.180;2024-03-22T02:46:56;10.82;;;9.90;;
11935;SDS011;6027;48.576;9.180;2024-03-22T02:49:22;11.20;;;10.00;;
11935;SDS011;6027;48.576;9.180;2024-03-22T02:51:47;9.85;;;9.00;;
11935;SDS011;6027;48.576;9.180;2024-03-22T02:54:12;10.70;;;9.63;;
11935;SDS011;6027;48.576;9.180;2024-03-22T02:56:39;11.07;;;9.98;;
11935;SDS011;6027;48.576;9.180;2024-03-22T02:59:04;11.88;;;8.60;;
11935;SDS011;6027;48.576;9.180;2024-03-22T03:01:29;10.57;;;9.57;;
11935;SDS011;6027;48.576;9.180;2024-03-22T03:03:55;12.25;;;9.73;;
11935;SDS011;6027;48.576;9.180;2024-03-22T03:06:20;11.43;;;10.32;;
11935;SDS011;6027;48.576;9.180;2024-03-22T03:08:46;11.32;;;10.25;;
11935;SDS011;6027;48.576;9.180;2024-03-22T03:11:11;11.73;;;10.63;;
11935;SDS011;6027;48.576;9.180;2024-03-22T03:13:40;12.35;;;10.52;;
11935;SDS011;6027;48.576;9.180;2024-03-22T03:16:05;11.07;;;9.90;;
11935;SDS011;6027;48.576;9.180;2024-03-22T03:18:30;11.15;;;10.02;;
11935;SDS011;6027;48.576;9.180;2024-03-22T03:20:56;11.45;;;10.30;;
11935;SDS011;6027;48.576;9.180;2024-03-22T03:23:21;11.32;;;9.82;;
11935;SDS011;6027;48.576;9.180;2024-03-22T03:25:47;11.88;;;10.77;;
11935;SDS011;6027;48.576;9.180;2024-03-22T03:28:12;11.30;;;10.20;;
11935;SDS011;6027;48.576;9.180;2024-03-22T03:30:39;10.60;;;9.60;;
11935;SDS011;6027;48.576;9.180;2024-03-22T03:33:04;11.57;;;10.38;;
11935;SDS011;6027;48.576;9.180;2024-03-22T03:35:30;11.90;;;10.70;;
11935;SDS011;6027;48.576;9.180;2024-03-22T03:37:55;12.20;;;10.98;;
11935;SDS011;6027;48.576;9.180;2024-03-22T03:40:21;11.90;;;10.80;;
11935;SDS011;6027;48.576;9.180;2024-03-22T03:42:49;12.13;;;10.77;;
11935;SDS011;6027;48.576;9.180;2024-03-22T03:45:15;12.55;;;11.40;;
11935;SDS011;6027;48.576;9.180;2024-03-22T03:47:40;12.15;;;10.95;;
11935;SDS011;6027;48.576;9.180;2024-03-22T03:50:06;12.88;;;11.57;;
11935;SDS011;6027;48.576;9.180;2024-03-22T03:52:31;14.15;;;11.68;;
11935;SDS011;6027;48.576;9.180;2024-03-22T03:54:57;13.52;;;12.20;;
11935;SDS011;6027;48.576;9.180;2024-03-22T03:57:22;16.80;;;15.07;;
11935;SDS011;6027;48.576;9.180;2024-03-22T03:59:48;18.70;;;16.88;;
11935;SDS011;6027;48.576;9.180;2024-03-22T04:02:13;15.27;;;13.98;;
11935;SDS011;6027;48.576;9.180;2024-03-22T04:04:38;15.48;;;13.98;;
11935;SDS011;6027;48.576;9.180;2024-03-22T04:07:04;14.40;;;12.90;;
11935;SDS011;6027;48.576;9.180;2024-03-22T04:09:29;14.60;;;13.20;;
11935;SDS011;6027;48.576;9.180;2024-03-22T04:11:55;13.65;;;12.25;;
11935;SDS011;6027;48.576;9.180;2024-03-22T04:14:24;14.45;;;13.05;;
11935;SDS011;6027;48.576;9.180;2024-03-22T04:16:50;13.93;;;12.75;;
11935;SDS011;6027;48.576;9.180;2024-03-22T04:19:15;15.02;;;12.18;;
11935;SDS011;6027;48.576;9.180;2024-03-22T04:21:41;12.85;;;11.48;;
11935;SDS011;6027;48.576;9.180;2024-03-22T04:24:06;12.35;;;11.23;;
11935;SDS011;6027;48.576;9.180;2024-03-22T04:26:32;14.32;;;10.98;;
11935;SDS011;6027;48.576;9.180;2024-03-22T04:28:57;12.75;;;11.48;;
11935;SDS011;6027;48.576;9.180;2024-03-22T04:31:22;11.05;;;10.05;;
11935;SDS011;6027;48.576;9.180;2024-03-22T04:33:48;12.30;;;10.90;;
11935;SDS011;6027;48.576;9.180;2024-03-22T04:36:13;10.93;;;9.85;;
11935;SDS011;6027;48.576;9.180;2024-03-22T04:38:40;12.05;;;10.82;;
11935;SDS011;6027;48.576;9.180;2024-03-22T04:41:05;11.57;;;9.80;;
11935;SDS011;6027;48.576;9.180;2024-03-22T04:43:31;12.20;;;9.63;;
11935;SDS011;6027;48.576;9.180;2024-03-22T04:45:56;10.40;;;9.48;;
11935;SDS011;6027;48.576;9.180;2024-03-22T04:48:22;11.65;;;10.48;;
11935;SDS011;6027;48.576;9.180;2024-03-22T04:50:48;13.38;;;9.65;;
11935;SDS011;6027;48.576;9.180;2024-03-22T04:53:15;11.98;;;10.02;;
11935;SDS011;6027;48.576;9.180;2024-03-22T04:55:50;12.45;;;10.80;;
11935;SDS011;6027;48.576;9.180;2024-03-22T04:58:17;10.88;;;9.88;;
11935;SDS011;6027;48.576;9.180;2024-03-22T05:00:43;10.23;;;9.20;;
11935;SDS011;6027;48.576;9.180;2024-03-22T05:03:10;10.93;;;9.90;;
11935;SDS011;6027;48.576;9.180;2024-03-22T05:05:36;11.93;;;10.32;;
11935;SDS011;6027;48.576;9.180;2024-03-22T05:08:01;11.93;;;10.00;;
11935;SDS011;6027;48.576;9.180;2024-03-22T05:10:28;12.02;;;10.15;;
11935;SDS011;6027;48.576;9.180;2024-03-22T05:12:54;12.82;;;10.93;;
11935;SDS011;6027;48.576;9.180;2024-03-22T05:15:20;11.02;;;9.90;;
11935;SDS011;6027;48.576;9.180;2024-03-22T05:17:46;11.45;;;10.35;;
11935;SDS011;6027;48.576;9.180;2024-03-22T05:20:11;10.85;;;9.77;;
11935;SDS011;6027;48.576;9.180;2024-03-22T05:22:37;11.98;;;10.77;;
11935;SDS011;6027;48.576;9.180;2024-03-22T05:25:03;11.13;;;9.98;;
11935;SDS011;6027;48.576;9.180;2024-03-22T05:27:30;12.32;;;10.98;;
11935;SDS011;6027;48.576;9.180;2024-03-22T05:29:56;11.45;;;10.38;;
11935;SDS011;6027;48.576;9.180;2024-03-22T05:32:21;11.35;;;10.23;;
11935;SDS011;6027;48.576;9.180;2024-03-22T05:34:47;11.05;;;9.98;;
11935;SDS011;6027;48.576;9.180;2024-03-22T05:37:12;11.65;;;10.65;;
11935;SDS011;6027;48.576;9.180;2024-03-22T05:39:38;13.27;;;12.07;;
11935;SDS011;6027;48.576;9.180;2024-03-22T05:42:05;12.70;;;11.48;;
11935;SDS011;6027;48.576;9.180;2024-03-22T05:44:31;12.63;;;11.35;;
11935;SDS011;6027;48.576;9.180;2024-03-22T05:46:57;12.23;;;10.70;;
11935;SDS011;6027;48.576;9.180;2024-03-22T05:49:22;13.43;;;12.05;;
11935;SDS011;6027;48.576;9.180;2024-03-22T05:51:48;12.75;;;11.43;;
11935;SDS011;6027;48.576;9.180;2024-03-22T05:54:13;12.60;;;11.40;;
11935;SDS011;6027;48.576;9.180;2024-03-22T05:56:39;13.20;;;11.98;;
11935;SDS011;6027;48.576;9.180;2024-03-22T05:59:04;14.68;;;13.27;;
11935;SDS011;6027;48.576;9.180;2024-03-22T06:01:31;14.85;;;13.40;;
11935;SDS011;6027;48.576;9.180;2024-03-22T06:03:57;14.20;;;12.93;;
11935;SDS011;6027;48.576;9.180;2024-03-22T06:06:23;13.45;;;12.13;;
11935;SDS011;6027;48.576;9.180;2024-03-22T06:08:51;13.07;;;11.98;;
11935;SDS011;6027;48.576;9.180;2024-03-22T06:11:22;13.88;;;12.25;;
11935;SDS011;6027;48.576;9.180;2024-03-22T06:13:47;13.73;;;12.35;;
11935;SDS011;6027;48.576;9.180;2024-03-22T06:16:13;14.13;;;12.80;;
11935;SDS011;6027;48.576;9.180;2024-03-22T06:18:38;16.58;;;13.20;;
11935;SDS011;6027;48.576;9.180;2024-03-22T06:21:04;14.65;;;12.80;;
11935;SDS011;6027;48.576;9.180;2024-03-22T06:23:30;15.55;;;12.75;;
11935;SDS011;6027;48.576;9.180;2024-03-22T06:25:56;14.02;;;12.63;;
11935;SDS011;6027;48.576;9.180;2024-03-22T06:28:22;14.57;;;13.23;;
11935;SDS011;6027;48.576;9.180;2024-03-22T06:30:48;14.73;;;13.32;;
11935;SDS011;6027;48.576;9.180;2024-03-22T06:33:13;16.58;;;13.13;;
11935;SDS011;6027;48.576;9.180;2024-03-22T06:35:40;13.93;;;12.63;;
11935;SDS011;6027;48.576;9.180;2024-03-22T06:38:06;14.73;;;13.40;;
11935;SDS011;6027;48.576;9.180;2024-03-22T06:40:31;14.75;;;13.25;;
11935;SDS011;6027;48.576;9.180;2024-03-22T06:42:57;14.85;;;13.43;;
11935;SDS011;6027;48.576;9.180;2024-03-22T06:45:23;14.63;;;13.23;;
11935;SDS011;6027;48.576;9.180;2024-03-22T06:47:48;15.20;;;13.48;;
11935;SDS011;6027;48.576;9.180;2024-03-22T06:50:14;14.60;;;13.20;;
11935;SDS011;6027;48.576;9.180;2024-03-22T06:52:39;15.98;;;13.88;;
11935;SDS011;6027;48.576;9.180;2024-03-22T06:55:05;14.25;;;12.85;;
11935;SDS011;6027;48.576;9.180;2024-03-22T06:57:31;13.93;;;12.52;;
11935;SDS011;6027;48.576;9.180;2024-03-22T06:59:58;13.77;;;12.48;;
11935;SDS011;6027;48.576;9.180;2024-03-22T07:02:24;13.10;;;11.90;;
11935;SDS011;6027;48.576;9.180;2024-03-22T07:04:49;14.25;;;12.75;;
11935;SDS011;6027;48.576;9.180;2024-03-22T07:07:15;14.35;;;12.55;;
11935;SDS011;6027;48.576;9.180;2024-03-22T07:09:40;13.13;;;11.82;;
11935;SDS011;6027;48.576;9.180;2024-03-22T07:12:06;13.82;;;12.40;;
11935;SDS011;6027;48.576;9.180;2024-03-22T07:14:32;12.82;;;11.52;;
11935;SDS011;6027;48.576;9.180;2024-03-22T07:16:57;12.85;;;11.65;;
11935;SDS011;6027;48.576;9.180;2024-03-22T07:19:23;14.40;;;11.43;;
11935;SDS011;6027;48.576;9.180;2024-03-22T07:21:48;12.10;;;10.95;;
11935;SDS011;6027;48.576;9.180;2024-03-22T07:24:14;12.93;;;11.63;;
11935;SDS011;6027;48.576;9.180;2024-03-22T07:26:39;12.00;;;10.65;;
11935;SDS011;6027;48.576;9.180;2024-03-22T07:29:05;11.20;;;10.10;;
11935;SDS011;6027;48.576;9.180;2024-03-22T07:31:30;11.57;;;10.48;;
11935;SDS011;6027;48.576;9.180;2024-03-22T07:33:56;12.07;;;10.80;;
11935;SDS011;6027;48.576;9.180;2024-03-22T07:36:21;11.23;;;9.93;;
11935;SDS011;6027;48.576;9.180;2024-03-22T07:38:47;11.32;;;10.13;;
11935;SDS011;6027;48.576;9.180;2024-03-22T07:41:15;11.25;;;9.90;;
11935;SDS011;6027;48.576;9.180;2024-03-22T07:43:41;11.55;;;10.18;;
11935;SDS011;6027;48.576;9.180;2024-03-22T07:46:06;10.75;;;9.75;;
11935;SDS011;6027;48.576;9.180;2024-03-22T07:48:32;10.77;;;8.80;;
11935;SDS011;6027;48.576;9.180;2024-03-22T07:51:01;10.05;;;9.00;;
11935;SDS011;6027;48.576;9.180;2024-03-22T07:53:26;9.75;;;8.85;;
11935;SDS011;6027;48.576;9.180;2024-03-22T07:55:52;9.15;;;8.35;;
11935;SDS011;6027;48.576;9.180;2024-03-22T07:58:17;9.10;;;8.20;;
11935;SDS011;6027;48.576;9.180;2024-03-22T08:00:43;8.95;;;8.02;;
11935;SDS011;6027;48.576;9.180;2024-03-22T08:03:09;8.23;;;7.43;;
11935;SDS011;6027;48.576;9.180;2024-03-22T08:05:39;8.18;;;7.30;;
11935;SDS011;6027;48.576;9.180;2024-03-22T08:08:05;10.18;;;7.25;;
11935;SDS011;6027;48.576;9.180;2024-03-22T08:10:30;8.95;;;7.63;;
11935;SDS011;6027;48.576;9.180;2024-03-22T08:12:56;10.60;;;7.18;;
11935;SDS011;6027;48.576;9.180;2024-03-22T08:15:21;10.15;;;7.13;;
11935;SDS011;6027;48.576;9.180;2024-03-22T08:17:46;8.00;;;7.20;;
11935;SDS011;6027;48.576;9.180;2024-03-22T08:20:12;9.98;;;7.68;;
11935;SDS011;6027;48.576;9.180;2024-03-22T08:22:37;11.77;;;7.28;;
11935;SDS011;6027;48.576;9.180;2024-03-22T08:25:03;8.70;;;6.63;;
11935;SDS011;6027;48.576;9.180;2024-03-22T08:27:29;7.93;;;7.00;;
11935;SDS011;6027;48.576;9.180;2024-03-22T08:29:54;11.10;;;6.97;;
11935;SDS011;6027;48.576;9.180;2024-03-22T08:32:20;8.18;;;6.53;;
11935;SDS011;6027;48.576;9.180;2024-03-22T08:34:45;7.82;;;6.70;;
11935;SDS011;6027;48.576;9.180;2024-03-22T08:37:11;9.00;;;6.75;;
11935;SDS011;6027;48.576;9.180;2024-03-22T08:39:36;6.78;;;6.07;;
11935;SDS011;6027;48.576;9.180;2024-03-22T08:42:02;7.30;;;6.15;;
11935;SDS011;6027;48.576;9.180;2024-03-22T08:44:30;10.40;;;6.32;;
11935;SDS011;6027;48.576;9.180;2024-03-22T08:46:55;8.20;;;5.80;;
11935;SDS011;6027;48.576;9.180;2024-03-22T08:49:21;8.27;;;5.90;;
11935;SDS011;6027;48.576;9.180;2024-03-22T08:51:46;9.85;;;6.07;;
11935;SDS011;6027;48.576;9.180;2024-03-22T08:54:13;7.60;;;5.93;;
11935;SDS011;6027;48.576;9.180;2024-03-22T08:56:38;7.65;;;5.93;;
11935;SDS011;6027;48.576;9.180;2024-03-22T08:59:04;6.80;;;6.20;;
11935;SDS011;6027;48.576;9.180;2024-03-22T09:01:30;7.88;;;5.82;;
11935;SDS011;6027;48.576;9.180;2024-03-22T09:03:56;7.20;;;5.45;;
11935;SDS011;6027;48.576;9.180;2024-03-22T09:06:21;9.05;;;5.75;;
11935;SDS011;6027;48.576;9.180;2024-03-22T09:08:47;6.70;;;5.47;;
11935;SDS011;6027;48.576;9.180;2024-03-22T09:11:12;7.30;;;5.55;;
11935;SDS011;6027;48.576;9.180;2024-03-22T09:13:38;6.63;;;5.28;;
11935;SDS011;6027;48.576;9.180;2024-03-22T09:16:03;7.00;;;5.60;;
11935;SDS011;6027;48.576;9.180;2024-03-22T09:18:29;6.28;;;5.53;;
11935;SDS011;6027;48.576;9.180;2024-03-22T09:20:54;6.65;;;5.35;;
11935;SDS011;6027;48.576;9.180;2024-03-22T09:23:21;7.78;;;5.53;;
11935;SDS011;6027;48.576;9.180;2024-03-22T09:25:49;7.32;;;5.95;;
11935;SDS011;6027;48.576;9.180;2024-03-22T09:28:15;6.43;;;5.18;;
11935;SDS011;6027;48.576;9.180;2024-03-22T09:30:40;7.47;;;5.55;;
11935;SDS011;6027;48.576;9.180;2024-03-22T09:33:08;9.75;;;6.13;;
11935;SDS011;6027;48.576;9.180;2024-03-22T09:35:34;8.55;;;6.00;;
11935;SDS011;6027;48.576;9.180;2024-03-22T09:37:59;6.78;;;5.70;;
11935;SDS011;6027;48.576;9.180;2024-03-22T09:40:25;7.55;;;5.85;;
11935;SDS011;6027;48.576;9.180;2024-03-22T09:42:50;8.38;;;5.40;;
11935;SDS011;6027;48.576;9.180;2024-03-22T09:45:18;9.15;;;5.63;;
11935;SDS011;6027;48.576;9.180;2024-03-22T09:47:45;9.43;;;5.93;;
11935;SDS011;6027;48.576;9.180;2024-03-22T09:50:13;8.07;;;5.72;;
11935;SDS011;6027;48.576;9.180;2024-03-22T09:52:39;6.10;;;5.30;;
11935;SDS011;6027;48.576;9.180;2024-03-22T09:55:06;6.22;;;5.40;;
11935;SDS011;6027;48.576;9.180;2024-03-22T09:57:33;6.95;;;5.47;;
11935;SDS011;6027;48.576;9.180;2024-03-22T10:00:04;7.78;;;5.15;;
11935;SDS011;6027;48.576;9.180;2024-03-22T10:02:32;8.27;;;5.55;;
11935;SDS011;6027;48.576;9.180;2024-03-22T10:04:58;7.25;;;4.97;;
11935;SDS011;6027;48.576;9.180;2024-03-22T10:07:25;9.07;;;5.03;;
11935;SDS011;6027;48.576;9.180;2024-03-22T10:09:57;5.72;;;4.80;;
11935;SDS011;6027;48.576;9.180;2024-03-22T10:12:23;12.55;;;5.13;;
11935;SDS011;6027;48.576;9.180;2024-03-22T10:14:50;6.53;;;4.35;;
11935;SDS011;6027;48.576;9.180;2024-03-22T10:17:18;6.68;;;4.60;;
11935;SDS011;6027;48.576;9.180;2024-03-22T10:19:43;8.23;;;4.80;;
11935;SDS011;6027;48.576;9.180;2024-03-22T10:22:08;6.55;;;4.22;;
11935;SDS011;6027;48.576;9.180;2024-03-22T10:24:34;10.85;;;4.70;;
11935;SDS011;6027;48.576;9.180;2024-03-22T10:26:59;5.95;;;4.82;;
11935;SDS011;6027;48.576;9.180;2024-03-22T10:29:25;7.53;;;4.45;;
11935;SDS011;6027;48.576;9.180;2024-03-22T10:31:54;6.97;;;4.18;;
11935;SDS011;6027;48.576;9.180;2024-03-22T10:34:21;6.35;;;4.30;;
11935;SDS011;6027;48.576;9.180;2024-03-22T10:36:47;6.95;;;4.30;;
11935;SDS011;6027;48.576;9.180;2024-03-22T10:39:15;5.60;;;4.25;;
11935;SDS011;6027;48.576;9.180;2024-03-22T10:41:43;6.10;;;4.53;;
11935;SDS011;6027;48.576;9.180;2024-03-22T10:44:10;7.13;;;4.13;;
11935;SDS011;6027;48.576;9.180;2024-03-22T10:46:35;6.95;;;4.20;;
11935;SDS011;6027;48.576;9.180;2024-03-22T10:49:02;6.60;;;4.47;;
11935;SDS011;6027;48.576;9.180;2024-03-22T10:51:30;5.70;;;3.83;;
11935;SDS011;6027;48.576;9.180;2024-03-22T10:53:57;7.13;;;5.03;;
11935;SDS011;6027;48.576;9.180;2024-03-22T10:56:26;10.00;;;4.80;;
11935;SDS011;6027;48.576;9.180;2024-03-22T10:58:52;4.70;;;4.15;;
11935;SDS011;6027;48.576;9.180;2024-03-22T11:01:27;4.82;;;3.97;;
11935;SDS011;6027;48.576;9.180;2024-03-22T11:04:05;6.32;;;4.45;;
11935;SDS011;6027;48.576;9.180;2024-03-22T11:06:38;7.68;;;3.90;;
11935;SDS011;6027;48.576;9.180;2024-03-22T11:09:04;8.30;;;4.40;;
11935;SDS011;6027;48.576;9.180;2024-03-22T11:11:29;4.88;;;3.83;;
11935;SDS011;6027;48.576;9.180;2024-03-22T11:13:58;4.47;;;3.85;;
11935;SDS011;6027;48.576;9.180;2024-03-22T11:16:23;6.03;;;4.60;;
11935;SDS011;6027;48.576;9.180;2024-03-22T11:18:49;5.32;;;4.05;;
11935;SDS011;6027;48.576;9.180;2024-03-22T11:21:15;5.32;;;3.90;;
11935;SDS011;6027;48.576;9.180;2024-03-22T11:23:40;6.28;;;4.18;;
11935;SDS011;6027;48.576;9.180;2024-03-22T11:26:06;6.45;;;4.00;;
11935;SDS011;6027;48.576;9.180;2024-03-22T11:28:33;9.32;;;4.93;;
11935;SDS011;6027;48.576;9.180;2024-03-22T11:30:59;5.28;;;4.20;;
11935;SDS011;6027;48.576;9.180;2024-03-22T11:33:24;6.57;;;4.43;;
11935;SDS011;6027;48.576;9.180;2024-03-22T11:35:52;5.10;;;4.15;;
11935;SDS011;6027;48.576;9.180;2024-03-22T11:38:18;6.25;;;4.30;;
11935;SDS011;6027;48.576;9.180;2024-03-22T11:40:44;6.43;;;4.07;;
11935;SDS011;6027;48.576;9.180;2024-03-22T11:43:09;5.28;;;4.20;;
11935;SDS011;6027;48.576;9.180;2024-03-22T11:45:36;6.75;;;4.93;;
11935;SDS011;6027;48.576;9.180;2024-03-22T11:48:02;5.22;;;4.07;;
11935;SDS011;6027;48.576;9.180;2024-03-22T11:50:28;6.43;;;4.10;;
11935;SDS011;6027;48.576;9.180;2024-03-22T11:52:54;7.45;;;3.90;;
11935;SDS011;6027;48.576;9.180;2024-03-22T11:55:21;6.53;;;4.05;;
11935;SDS011;6027;48.576;9.180;2024-03-22T11:57:49;7.32;;;4.00;;
11935;SDS011;6027;48.576;9.180;2024-03-22T12:00:16;4.90;;;3.53;;
11935;SDS011;6027;48.576;9.180;2024-03-22T12:02:43;10.25;;;3.90;;
11935;SDS011;6027;48.576;9.180;2024-03-22T12:05:09;7.20;;;3.92;;
11935;SDS011;6027;48.576;9.180;2024-03-22T12:07:35;6.32;;;3.75;;
11935;SDS011;6027;48.576;9.180;2024-03-22T12:10:02;5.03;;;3.38;;
11935;SDS011;6027;48.576;9.180;2024-03-22T12:12:28;4.70;;;4.10;;
11935;SDS011;6027;48.576;9.180;2024-03-22T12:14:54;7.35;;;4.00;;
11935;SDS011;6027;48.576;9.180;2024-03-22T12:17:20;7.53;;;4.28;;
11935;SDS011;6027;48.576;9.180;2024-03-22T12:19:45;5.22;;;3.40;;
11935;SDS011;6027;48.576;9.180;2024-03-22T12:22:11;4.88;;;3.85;;
11935;SDS011;6027;48.576;9.180;2024-03-22T12:24:37;4.43;;;3.38;;
11935;SDS011;6027;48.576;9.180;2024-03-22T12:27:02;4.35;;;3.33;;
11935;SDS011;6027;48.576;9.180;2024-03-22T12:29:28;5.15;;;3.15;;
11935;SDS011;6027;48.576;9.180;2024-03-22T12:31:53;4.38;;;3.00;;
11935;SDS011;6027;48.576;9.180;2024-03-22T12:34:19;5.07;;;3.25;;
11935;SDS011;6027;48.576;9.180;2024-03-22T12:36:44;4.68;;;3.42;;
11935;SDS011;6027;48.576;9.180;2024-03-22T12:39:10;3.50;;;2.70;;
11935;SDS011;6027;48.576;9.180;2024-03-22T12:41:36;4.68;;;3.13;;
11935;SDS011;6027;48.576;9.180;2024-03-22T12:44:02;3.60;;;2.95;;
11935;SDS011;6027;48.576;9.180;2024-03-22T12:46:28;4.63;;;3.10;;
11935;SDS011;6027;48.576;9.180;2024-03-22T12:48:54;3.58;;;2.53;;
11935;SDS011;6027;48.576;9.180;2024-03-22T12:51:19;3.63;;;2.30;;
11935;SDS011;6027;48.576;9.180;2024-03-22T12:53:45;2.88;;;2.35;;
11935;SDS011;6027;48.576;9.180;2024-03-22T12:56:11;4.20;;;2.55;;
11935;SDS011;6027;48.576;9.180;2024-03-22T12:58:36;3.97;;;2.60;;
11935;SDS011;6027;48.576;9.180;2024-03-22T13:01:02;3.45;;;2.40;;
11935;SDS011;6027;48.576;9.180;2024-03-22T13:03:28;2.85;;;2.25;;
11935;SDS011;6027;48.576;9.180;2024-03-22T13:05:55;2.60;;;2.40;;
11935;SDS011;6027;48.576;9.180;2024-03-22T13:08:20;2.95;;;2.10;;
11935;SDS011;6027;48.576;9.180;2024-03-22T13:10:46;3.40;;;2.33;;
11935;SDS011;6027;48.576;9.180;2024-03-22T13:13:13;2.40;;;2.20;;
11935;SDS011;6027;48.576;9.180;2024-03-22T13:15:41;2.20;;;1.80;;
11935;SDS011;6027;48.576;9.180;2024-03-22T13:18:07;2.83;;;1.70;;
11935;SDS011;6027;48.576;9.180;2024-03-22T13:20:34;3.85;;;1.70;;
11935;SDS011;6027;48.576;9.180;2024-03-22T13:23:00;4.43;;;1.95;;
11935;SDS011;6027;48.576;9.180;2024-03-22T13:25:26;2.45;;;1.73;;
11935;SDS011;6027;48.576;9.180;2024-03-22T13:27:52;2.22;;;1.90;;
11935;SDS011;6027;48.576;9.180;2024-03-22T13:30:17;2.80;;;1.65;;
11935;SDS011;6027;48.576;9.180;2024-03-22T13:32:43;4.32;;;1.90;;
11935;SDS011;6027;48.576;9.180;2024-03-22T13:35:08;2.67;;;1.50;;
11935;SDS011;6027;48.576;9.180;2024-03-22T13:37:34;3.90;;;1.55;;
11935;SDS011;6027;48.576;9.180;2024-03-22T13:40:00;2.42;;;1.63;;
11935;SDS011;6027;48.576;9.180;2024-03-22T13:42:25;4.45;;;1.73;;
11935;SDS011;6027;48.576;9.180;2024-03-22T13:44:52;4.45;;;1.75;;
11935;SDS011;6027;48.576;9.180;2024-03-22T13:47:17;1.88;;;1.40;;
11935;SDS011;6027;48.576;9.180;2024-03-22T13:49:43;4.05;;;1.52;;
11935;SDS011;6027;48.576;9.180;2024-03-22T13:52:10;1.85;;;1.60;;
11935;SDS011;6027;48.576;9.180;2024-03-22T13:54:35;8.23;;;1.60;;
11935;SDS011;6027;48.576;9.180;2024-03-22T13:57:01;2.45;;;1.90;;
11935;SDS011;6027;48.576;9.180;2024-03-22T13:59:30;3.15;;;1.70;;
11935;SDS011;6027;48.576;9.180;2024-03-22T14:01:56;2.72;;;1.40;;
11935;SDS011;6027;48.576;9.180;2024-03-22T14:04:25;4.40;;;1.52;;
11935;SDS011;6027;48.576;9.180;2024-03-22T14:06:51;2.80;;;1.40;;
11935;SDS011;6027;48.576;9.180;2024-03-22T14:09:17;3.05;;;1.40;;
11935;SDS011;6027;48.576;9.180;2024-03-22T14:11:43;4.43;;;1.70;;
11935;SDS011;6027;48.576;9.180;2024-03-22T14:14:11;3.42;;;1.48;;
11935;SDS011;6027;48.576;9.180;2024-03-22T14:16:37;2.78;;;1.83;;
11935;SDS011;6027;48.576;9.180;2024-03-22T14:19:03;3.55;;;1.70;;
11935;SDS011;6027;48.576;9.180;2024-03-22T14:21:28;3.00;;;1.30;;
11935;SDS011;6027;48.576;9.180;2024-03-22T14:23:54;3.58;;;1.42;;
11935;SDS011;6027;48.576;9.180;2024-03-22T14:26:20;1.67;;;1.25;;
11935;SDS011;6027;48.576;9.180;2024-03-22T14:28:46;2.10;;;1.20;;
11935;SDS011;6027;48.576;9.180;2024-03-22T14:31:12;4.10;;;1.27;;
11935;SDS011;6027;48.576;9.180;2024-03-22T14:33:38;1.52;;;1.42;;
11935;SDS011;6027;48.576;9.180;2024-03-22T14:36:05;5.32;;;1.63;;
11935;SDS011;6027;48.576;9.180;2024-03-22T14:38:31;1.42;;;1.30;;
11935;SDS011;6027;48.576;9.180;2024-03-22T14:40:57;2.63;;;1.27;;
11935;SDS011;6027;48.576;9.180;2024-03-22T14:43:23;2.50;;;1.25;;